createdAt,value
2018-04-14T00:02:00.419Z,23.60
2018-04-14T00:04:27.905Z,23.60
2018-04-14T00:06:55.401Z,23.60
2018-04-14T00:09:23.659Z,23.60
2018-04-14T00:11:51.144Z,23.60
2018-04-14T00:14:18.633Z,23.60
2018-04-14T00:16:46.131Z,23.60
2018-04-14T00:19:13.641Z,23.60
2018-04-14T00:21:41.137Z,23.50
2018-04-14T00:24:08.684Z,23.60
2018-04-14T00:26:36.184Z,23.50
2018-04-14T00:29:04.438Z,23.60
2018-04-14T00:31:31.885Z,23.50
2018-04-14T00:33:59.392Z,23.60
2018-04-14T00:36:26.888Z,23.60
2018-04-14T00:38:54.414Z,23.60
2018-04-14T00:41:21.912Z,23.50
2018-04-14T00:43:49.402Z,23.50
2018-04-14T00:46:16.893Z,23.60
2018-04-14T00:48:45.230Z,23.60
2018-04-14T00:51:12.752Z,23.60
2018-04-14T00:53:47.077Z,23.50
2018-04-14T00:56:14.580Z,23.50
2018-04-14T00:58:43.241Z,23.60
2018-04-14T01:01:10.734Z,23.50
2018-04-14T01:03:38.249Z,23.60
2018-04-14T01:06:05.762Z,23.50
2018-04-14T01:08:33.236Z,23.50
2018-04-14T01:11:00.753Z,23.50
2018-04-14T01:13:29.053Z,23.50
2018-04-14T01:15:56.545Z,23.50
2018-04-14T01:18:24.051Z,23.50
2018-04-14T01:20:52.306Z,23.50
2018-04-14T01:23:19.817Z,23.50
2018-04-14T01:25:47.351Z,23.50
2018-04-14T01:28:15.597Z,23.50
2018-04-14T01:30:43.094Z,23.50
2018-04-14T01:33:10.608Z,23.50
2018-04-14T01:35:38.104Z,23.50
2018-04-14T01:38:06.389Z,23.50
2018-04-14T01:40:33.881Z,23.50
2018-04-14T01:43:01.333Z,23.50
2018-04-14T01:45:28.841Z,23.50
2018-04-14T01:47:57.080Z,23.50
2018-04-14T01:50:24.594Z,23.50
2018-04-14T01:52:53.316Z,23.50
2018-04-14T01:55:20.877Z,23.50
2018-04-14T01:57:48.361Z,23.50
2018-04-14T02:00:15.868Z,23.50
2018-04-14T02:02:43.390Z,23.50
2018-04-14T02:05:11.636Z,23.50
2018-04-14T02:07:39.130Z,23.40
2018-04-14T02:10:07.413Z,23.50
2018-04-14T02:12:35.647Z,23.50
2018-04-14T02:15:03.217Z,23.40
2018-04-14T02:17:30.710Z,23.50
2018-04-14T02:19:58.228Z,23.50
2018-04-14T02:22:26.467Z,23.40
2018-04-14T02:24:53.936Z,23.40
2018-04-14T02:27:21.440Z,23.50
2018-04-14T02:29:48.907Z,23.50
2018-04-14T02:32:16.412Z,23.50
2018-04-14T02:34:43.892Z,23.50
2018-04-14T02:37:11.372Z,23.50
2018-04-14T02:39:39.656Z,23.40
2018-04-14T02:42:07.913Z,23.40
2018-04-14T02:44:35.406Z,23.40
2018-04-14T02:47:02.944Z,23.40
2018-04-14T02:49:31.210Z,23.50
2018-04-14T02:51:58.702Z,23.40
2018-04-14T02:54:26.191Z,23.50
2018-04-14T02:56:53.702Z,23.40
2018-04-14T02:59:21.942Z,23.40
2018-04-14T03:01:49.432Z,23.40
2018-04-14T03:04:17.710Z,23.40
2018-04-14T03:06:46.007Z,23.40
2018-04-14T03:09:13.490Z,23.40
2018-04-14T03:11:41.004Z,23.40
2018-04-14T03:14:09.295Z,23.40
2018-04-14T03:16:36.800Z,23.40
2018-04-14T03:19:04.268Z,23.40
2018-04-14T03:21:31.773Z,23.40
2018-04-14T03:23:59.284Z,23.40
2018-04-14T03:26:26.784Z,23.40
2018-04-14T03:28:54.272Z,23.40
2018-04-14T03:31:21.762Z,23.40
2018-04-14T03:33:49.283Z,23.40
2018-04-14T03:36:16.812Z,23.40
2018-04-14T03:38:45.212Z,23.40
2018-04-14T03:41:12.690Z,23.40
2018-04-14T03:43:40.187Z,23.40
2018-04-14T03:46:07.689Z,23.40
2018-04-14T03:48:35.249Z,23.40
2018-04-14T03:51:02.728Z,23.30
2018-04-14T03:53:30.229Z,23.40
2018-04-14T03:55:58.484Z,23.40
2018-04-14T03:58:25.974Z,23.40
2018-04-14T04:00:54.230Z,23.40
2018-04-14T04:03:21.716Z,23.40
2018-04-14T04:05:49.238Z,23.40
2018-04-14T04:08:16.734Z,23.40
2018-04-14T04:10:44.244Z,23.40
2018-04-14T04:13:11.738Z,23.40
2018-04-14T04:15:40.075Z,23.40
2018-04-14T04:18:07.512Z,23.40
2018-04-14T04:20:56.558Z,23.30
2018-04-14T04:23:35.924Z,23.40
2018-04-14T04:26:03.430Z,23.40
2018-04-14T04:28:31.662Z,23.40
2018-04-14T04:30:59.172Z,23.30
2018-04-14T04:33:26.710Z,23.40
2018-04-14T04:35:54.952Z,23.40
2018-04-14T04:38:22.462Z,23.40
2018-04-14T04:40:49.940Z,23.40
2018-04-14T04:43:17.454Z,23.30
2018-04-14T04:45:44.951Z,23.30
2018-04-14T04:48:12.419Z,23.30
2018-04-14T04:50:39.939Z,23.40
2018-04-14T04:53:08.179Z,23.30
2018-04-14T04:55:35.651Z,23.30
2018-04-14T04:58:03.169Z,23.40
2018-04-14T05:00:30.645Z,23.30
2018-04-14T05:02:58.261Z,23.30
2018-04-14T05:05:25.778Z,23.30
2018-04-14T05:07:53.288Z,23.30
2018-04-14T05:10:20.789Z,23.30
2018-04-14T05:12:48.289Z,23.40
2018-04-14T05:15:16.542Z,23.40
2018-04-14T05:17:44.007Z,23.30
2018-04-14T05:20:12.275Z,23.40
2018-04-14T05:22:39.773Z,23.40
2018-04-14T05:25:07.271Z,23.40
2018-04-14T05:27:34.794Z,23.40
2018-04-14T05:30:02.270Z,23.50
2018-04-14T05:32:29.813Z,23.50
2018-04-14T05:34:57.291Z,23.50
2018-04-14T05:37:24.845Z,23.50
2018-04-14T05:39:52.311Z,23.50
2018-04-14T05:42:19.857Z,23.50
2018-04-14T05:44:47.369Z,23.50
2018-04-14T05:47:15.609Z,23.50
2018-04-14T05:49:43.113Z,23.50
2018-04-14T05:52:11.563Z,23.70
2018-04-14T05:54:39.835Z,23.70
2018-04-14T05:57:07.347Z,23.70
2018-04-14T05:59:34.880Z,23.80
2018-04-14T06:02:03.155Z,23.80
2018-04-14T06:04:31.428Z,23.70
2018-04-14T06:06:59.693Z,23.80
2018-04-14T06:09:27.968Z,23.80
2018-04-14T06:11:55.485Z,23.80
2018-04-14T06:14:22.969Z,23.80
2018-04-14T06:16:50.469Z,23.80
2018-04-14T06:19:18.794Z,23.80
2018-04-14T06:21:46.309Z,23.80
2018-04-14T06:24:14.539Z,23.80
2018-04-14T06:26:42.026Z,23.80
2018-04-14T06:29:10.330Z,23.80
2018-04-14T06:31:37.800Z,23.80
2018-04-14T06:34:05.320Z,23.80
2018-04-14T06:36:33.595Z,23.80
2018-04-14T06:39:01.861Z,23.80
2018-04-14T06:41:29.363Z,23.80
2018-04-14T06:43:56.871Z,23.80
2018-04-14T06:46:24.382Z,23.80
2018-04-14T06:48:51.874Z,23.80
2018-04-14T06:51:19.391Z,23.80
2018-04-14T06:53:48.741Z,23.80
2018-04-14T06:56:16.259Z,23.90
2018-04-14T06:58:44.350Z,23.90
2018-04-14T07:01:11.855Z,23.90
2018-04-14T07:03:40.092Z,24.00
2018-04-14T07:06:07.607Z,24.00
2018-04-14T07:08:35.113Z,24.10
2018-04-14T07:11:02.648Z,24.00
2018-04-14T07:13:30.204Z,24.10
2018-04-14T07:15:57.727Z,24.10
2018-04-14T07:18:26.010Z,23.90
2018-04-14T07:20:54.281Z,24.00
2018-04-14T07:23:22.553Z,23.90
2018-04-14T07:25:50.068Z,23.90
2018-04-14T07:28:17.591Z,23.90
2018-04-14T07:30:45.060Z,23.90
2018-04-14T07:33:12.590Z,23.90
2018-04-14T07:35:40.861Z,23.80
2018-04-14T07:38:09.103Z,23.80
2018-04-14T07:40:36.621Z,23.80
2018-04-14T07:43:04.115Z,23.90
2018-04-14T07:45:31.590Z,23.80
2018-04-14T07:47:59.110Z,23.90
2018-04-14T07:50:26.627Z,23.90
2018-04-14T07:52:54.881Z,23.80
2018-04-14T07:55:22.395Z,23.80
2018-04-14T07:57:49.954Z,23.80
2018-04-14T08:00:17.525Z,23.80
2018-04-14T08:02:45.090Z,23.90
2018-04-14T08:05:12.613Z,23.80
2018-04-14T08:07:40.318Z,23.80
2018-04-14T08:10:07.842Z,23.90
2018-04-14T08:12:35.322Z,23.90
2018-04-14T08:15:02.837Z,23.90
2018-04-14T08:17:31.113Z,23.90
2018-04-14T08:19:59.382Z,24.00
2018-04-14T08:22:26.996Z,24.00
2018-04-14T08:24:54.495Z,24.00
2018-04-14T08:27:22.020Z,24.00
2018-04-14T08:29:49.495Z,24.00
2018-04-14T08:32:17.121Z,24.00
2018-04-14T08:34:44.596Z,24.00
2018-04-14T08:37:12.380Z,24.00
2018-04-14T08:39:40.067Z,23.90
2018-04-14T08:42:08.352Z,24.00
2018-04-14T08:44:36.584Z,24.10
2018-04-14T08:47:04.218Z,24.00
2018-04-14T08:49:31.764Z,24.20
2018-04-14T08:51:59.272Z,24.20
2018-04-14T08:54:26.818Z,24.20
2018-04-14T08:56:54.302Z,24.20
2018-04-14T08:59:21.806Z,24.30
2018-04-14T09:01:49.345Z,24.30
2018-04-14T09:04:16.846Z,24.30
2018-04-14T09:06:44.359Z,24.30
2018-04-14T09:09:12.595Z,24.40
2018-04-14T09:11:40.082Z,24.40
2018-04-14T09:14:08.394Z,25.00
2018-04-14T09:16:35.878Z,25.00
2018-04-14T09:19:03.401Z,25.20
2018-04-14T09:21:30.934Z,25.30
2018-04-14T09:23:58.466Z,25.20
2018-04-14T09:26:27.524Z,24.70
2018-04-14T09:28:55.002Z,24.70
2018-04-14T09:31:22.518Z,24.60
2018-04-14T09:33:50.032Z,24.50
2018-04-14T09:36:17.541Z,24.40
2018-04-14T09:38:45.082Z,24.40
2018-04-14T09:41:13.479Z,24.40
2018-04-14T09:43:41.742Z,24.40
2018-04-14T09:46:09.975Z,24.40
2018-04-14T09:48:37.478Z,24.30
2018-04-14T09:51:05.720Z,24.30
2018-04-14T09:53:33.314Z,24.30
2018-04-14T09:56:01.582Z,24.30
2018-04-14T09:58:29.952Z,24.30
2018-04-14T10:01:01.886Z,24.30
2018-04-14T10:03:29.391Z,24.30
2018-04-14T10:05:56.948Z,24.30
2018-04-14T10:08:25.215Z,24.30
2018-04-14T10:10:53.490Z,24.30
2018-04-14T10:13:21.780Z,24.40
2018-04-14T10:15:49.296Z,24.30
2018-04-14T10:18:16.840Z,24.30
2018-04-14T10:20:44.361Z,24.30
2018-04-14T10:23:11.858Z,24.30
2018-04-14T10:25:39.374Z,24.30
2018-04-14T10:28:06.948Z,24.30
2018-04-14T10:30:34.427Z,24.20
2018-04-14T10:33:01.950Z,24.20
2018-04-14T10:35:29.456Z,24.20
2018-04-14T10:37:57.024Z,24.20
2018-04-14T10:40:24.449Z,24.20
2018-04-14T10:42:51.949Z,24.20
2018-04-14T10:45:20.205Z,24.30
2018-04-14T10:47:47.669Z,24.30
2018-04-14T10:50:15.185Z,24.20
2018-04-14T10:52:42.732Z,24.20
2018-04-14T10:55:10.266Z,24.20
2018-04-14T10:57:38.601Z,24.20
2018-04-14T11:00:06.155Z,24.20
2018-04-14T11:02:33.657Z,24.20
2018-04-14T11:05:01.913Z,24.20
2018-04-14T11:07:30.226Z,24.20
2018-04-14T11:09:58.517Z,24.20
2018-04-14T11:12:26.040Z,24.20
2018-04-14T11:14:53.511Z,24.20
2018-04-14T11:17:21.809Z,24.20
2018-04-14T11:19:49.379Z,24.20
2018-04-14T11:22:16.881Z,24.20
2018-04-14T11:24:44.485Z,24.20
2018-04-14T11:27:12.020Z,24.20
2018-04-14T11:29:40.299Z,24.20
2018-04-14T11:32:08.557Z,24.20
2018-04-14T11:34:36.091Z,24.20
2018-04-14T11:37:03.590Z,24.20
2018-04-14T11:39:31.109Z,24.20
2018-04-14T11:41:58.596Z,24.20
2018-04-14T11:44:27.701Z,24.20
2018-04-14T11:46:55.999Z,24.20
2018-04-14T11:49:23.585Z,24.20
2018-04-14T11:51:51.093Z,24.20
2018-04-14T11:54:19.381Z,24.20
2018-04-14T11:56:47.659Z,24.20
2018-04-14T11:59:15.164Z,24.20
2018-04-14T12:01:42.635Z,24.20
2018-04-14T12:04:10.129Z,24.10
2018-04-14T12:06:38.407Z,24.10
2018-04-14T12:09:06.659Z,24.10
2018-04-14T12:11:34.165Z,24.20
2018-04-14T12:14:01.643Z,24.10
2018-04-14T12:16:29.167Z,24.10
2018-04-14T12:18:56.675Z,24.20
2018-04-14T12:21:24.199Z,24.10
2018-04-14T12:23:51.705Z,24.10
2018-04-14T12:26:19.227Z,24.20
2018-04-14T12:28:46.711Z,24.10
2018-04-14T12:31:14.283Z,24.10
2018-04-14T12:33:41.792Z,24.20
2018-04-14T12:36:09.296Z,24.20
2018-04-14T12:38:36.777Z,24.20
2018-04-14T12:41:05.062Z,24.10
2018-04-14T12:43:32.574Z,24.10
2018-04-14T12:46:00.073Z,24.10
2018-04-14T12:48:28.406Z,24.10
2018-04-14T12:50:55.909Z,24.10
2018-04-14T12:53:24.174Z,24.10
2018-04-14T12:55:52.494Z,24.10
2018-04-14T12:58:20.018Z,24.10
2018-04-14T13:00:47.513Z,24.10
2018-04-14T13:03:15.047Z,24.10
2018-04-14T13:05:42.603Z,24.10
2018-04-14T13:08:10.836Z,24.10
2018-04-14T13:10:38.359Z,24.10
2018-04-14T13:13:05.928Z,24.10
2018-04-14T13:15:33.442Z,24.10
2018-04-14T13:18:01.692Z,24.10
2018-04-14T13:20:30.980Z,24.10
2018-04-14T13:22:59.379Z,24.10
2018-04-14T13:25:26.867Z,24.10
2018-04-14T13:27:54.416Z,24.10
2018-04-14T13:30:22.666Z,24.10
2018-04-14T13:32:50.188Z,24.10
2018-04-14T13:35:17.713Z,24.10
2018-04-14T13:37:46.090Z,24.10
2018-04-14T13:40:14.374Z,24.10
2018-04-14T13:42:42.648Z,24.10
2018-04-14T13:45:10.128Z,24.10
2018-04-14T13:47:37.685Z,24.10
2018-04-14T13:50:05.215Z,24.10
2018-04-14T13:52:33.489Z,24.10
2018-04-14T13:55:01.765Z,24.10
2018-04-14T13:57:30.029Z,24.10
2018-04-14T13:59:57.498Z,24.10
2018-04-14T14:02:25.819Z,24.00
2018-04-14T14:04:53.297Z,24.00
2018-04-14T14:07:20.805Z,24.00
2018-04-14T14:09:48.315Z,24.10
2018-04-14T14:12:15.859Z,24.10
2018-04-14T14:14:43.364Z,24.10
2018-04-14T14:17:11.658Z,24.10
2018-04-14T14:19:39.166Z,24.10
2018-04-14T14:22:06.650Z,24.10
2018-04-14T14:24:34.139Z,24.10
2018-04-14T14:27:01.650Z,24.10
2018-04-14T14:29:29.267Z,24.20
2018-04-14T14:31:56.797Z,24.10
2018-04-14T14:34:25.058Z,24.10
2018-04-14T14:36:53.371Z,24.20
2018-04-14T14:39:21.045Z,24.10
2018-04-14T14:41:48.567Z,24.10
2018-04-14T14:44:16.846Z,24.10
2018-04-14T14:46:45.091Z,24.00
2018-04-14T14:49:14.116Z,24.00
2018-04-14T14:51:41.618Z,24.00
2018-04-14T14:54:09.118Z,24.00
2018-04-14T14:56:37.418Z,24.00
2018-04-14T14:59:04.885Z,24.00
2018-04-14T15:01:34.138Z,24.00
2018-04-14T15:04:01.733Z,23.90
2018-04-14T15:06:29.217Z,23.90
2018-04-14T15:08:56.768Z,23.90
2018-04-14T15:11:24.301Z,23.90
2018-04-14T15:13:52.582Z,23.90
2018-04-14T15:16:20.818Z,23.90
2018-04-14T15:18:48.420Z,23.90
2018-04-14T15:21:16.670Z,23.90
2018-04-14T15:23:44.190Z,23.90
2018-04-14T15:26:11.710Z,23.90
2018-04-14T15:28:39.949Z,23.90
2018-04-14T15:31:07.470Z,23.90
2018-04-14T15:33:34.939Z,23.90
2018-04-14T15:36:02.454Z,24.00
2018-04-14T15:38:30.737Z,24.00
2018-04-14T15:40:59.182Z,24.00
2018-04-14T15:43:26.697Z,24.00
2018-04-14T15:45:54.186Z,24.10
2018-04-14T15:48:21.684Z,24.00
2018-04-14T15:50:49.932Z,24.00
2018-04-14T15:53:17.433Z,24.00
2018-04-14T15:55:44.943Z,24.00
2018-04-14T15:58:12.424Z,24.00
2018-04-14T16:00:39.971Z,24.10
2018-04-14T16:03:07.467Z,24.00
2018-04-14T16:05:34.930Z,24.00
2018-04-14T16:08:02.450Z,23.90
2018-04-14T16:10:29.963Z,23.90
2018-04-14T16:12:57.452Z,23.90
2018-04-14T16:15:24.992Z,24.00
2018-04-14T16:17:52.468Z,23.90
2018-04-14T16:20:19.982Z,23.90
2018-04-14T16:22:47.487Z,24.00
2018-04-14T16:25:15.733Z,24.00
2018-04-14T16:27:43.230Z,24.00
2018-04-14T16:30:10.740Z,24.10
2018-04-14T16:32:38.269Z,24.00
2018-04-14T16:35:06.540Z,24.40
2018-04-14T16:37:34.830Z,24.40
2018-04-14T16:40:03.098Z,24.30
2018-04-14T16:42:31.334Z,24.30
2018-04-14T16:44:58.842Z,24.30
2018-04-14T16:47:27.129Z,24.30
2018-04-14T16:49:54.610Z,24.30
2018-04-14T16:52:22.140Z,24.30
2018-04-14T16:54:49.680Z,24.30
2018-04-14T16:57:17.970Z,24.30
2018-04-14T16:59:45.541Z,24.30
2018-04-14T17:02:13.074Z,24.30
2018-04-14T17:04:41.364Z,24.30
2018-04-14T17:07:09.673Z,24.20
2018-04-14T17:09:37.207Z,24.20
2018-04-14T17:12:04.736Z,24.20
2018-04-14T17:14:32.324Z,24.20
2018-04-14T17:17:00.785Z,24.10
2018-04-14T17:19:29.107Z,24.10
2018-04-14T17:21:57.383Z,24.10
2018-04-14T17:24:24.883Z,24.10
2018-04-14T17:26:52.385Z,24.10
2018-04-14T17:29:19.912Z,24.10
2018-04-14T17:31:48.161Z,24.00
2018-04-14T17:34:15.698Z,24.10
2018-04-14T17:36:43.234Z,24.10
2018-04-14T17:39:10.713Z,24.10
2018-04-14T17:41:38.211Z,24.10
2018-04-14T17:44:05.818Z,24.00
2018-04-14T17:46:33.329Z,24.00
2018-04-14T17:49:01.427Z,24.00
2018-04-14T17:51:29.726Z,24.00
2018-04-14T17:53:57.233Z,24.00
2018-04-14T17:56:25.011Z,24.00
2018-04-14T17:58:52.553Z,24.00
2018-04-14T18:01:23.873Z,24.00
2018-04-14T18:03:51.381Z,24.00
2018-04-14T18:06:19.715Z,23.90
2018-04-14T18:08:47.333Z,24.00
2018-04-14T18:11:14.819Z,23.90
2018-04-14T18:13:42.323Z,24.00
2018-04-14T18:16:09.872Z,24.00
2018-04-14T18:18:37.370Z,24.00
2018-04-14T18:21:04.838Z,24.00
2018-04-14T18:23:32.333Z,24.10
2018-04-14T18:25:59.929Z,24.00
2018-04-14T18:28:28.249Z,24.00
2018-04-14T18:30:55.768Z,24.00
2018-04-14T18:33:24.000Z,24.00
2018-04-14T18:35:51.510Z,24.00
2018-04-14T18:38:19.039Z,24.00
2018-04-14T18:40:48.324Z,24.00
2018-04-14T18:43:15.817Z,24.00
2018-04-14T18:45:44.107Z,24.10
2018-04-14T18:48:11.671Z,24.00
2018-04-14T18:50:40.144Z,24.00
2018-04-14T18:53:07.682Z,24.00
2018-04-14T18:55:35.951Z,24.00
2018-04-14T18:58:03.462Z,24.00
2018-04-14T19:00:30.972Z,24.00
2018-04-14T19:02:58.546Z,24.10
2018-04-14T19:05:26.850Z,24.00
2018-04-14T19:07:54.342Z,24.00
2018-04-14T19:10:21.875Z,24.00
2018-04-14T19:12:50.114Z,24.00
2018-04-14T19:15:18.423Z,24.00
2018-04-14T19:17:45.925Z,24.00
2018-04-14T19:20:13.413Z,24.00
2018-04-14T19:22:41.025Z,24.00
2018-04-14T19:25:08.540Z,24.00
2018-04-14T19:27:36.038Z,24.00
2018-04-14T19:30:03.546Z,24.00
2018-04-14T19:32:31.875Z,24.00
2018-04-14T19:34:59.400Z,24.00
2018-04-14T19:37:26.880Z,24.00
2018-04-14T19:39:54.407Z,24.00
2018-04-14T19:42:21.915Z,24.00
2018-04-14T19:44:49.463Z,24.00
2018-04-14T19:47:18.792Z,24.00
2018-04-14T19:49:46.280Z,24.00
2018-04-14T19:52:13.992Z,24.00
2018-04-14T19:54:41.496Z,24.00
2018-04-14T19:57:09.834Z,24.00
2018-04-14T19:59:37.341Z,24.00
2018-04-14T20:02:05.584Z,24.00
2018-04-14T20:04:33.102Z,24.00
2018-04-14T20:07:00.650Z,24.00
2018-04-14T20:09:28.121Z,23.90
2018-04-14T20:11:55.654Z,23.90
2018-04-14T20:14:23.164Z,23.90
2018-04-14T20:16:51.446Z,24.00
2018-04-14T20:19:18.936Z,23.90
2018-04-14T20:21:47.210Z,23.90
2018-04-14T20:24:15.464Z,23.90
2018-04-14T20:26:42.934Z,23.90
2018-04-14T20:29:11.214Z,23.90
2018-04-14T20:31:39.525Z,23.90
2018-04-14T20:34:06.999Z,23.90
2018-04-14T20:36:34.514Z,23.90
2018-04-14T20:39:02.752Z,23.90
2018-04-14T20:41:30.274Z,23.90
2018-04-14T20:43:57.753Z,23.90
2018-04-14T20:46:25.304Z,23.90
2018-04-14T20:48:52.798Z,23.90
2018-04-14T20:51:20.304Z,23.90
2018-04-14T20:53:47.798Z,23.80
2018-04-14T20:56:15.378Z,23.90
2018-04-14T20:58:42.898Z,23.90
2018-04-14T21:01:10.364Z,23.90
2018-04-14T21:03:37.857Z,23.80
2018-04-14T21:06:05.378Z,23.90
2018-04-14T21:08:32.852Z,23.90
2018-04-14T21:11:00.340Z,23.90
2018-04-14T21:13:29.112Z,23.80
2018-04-14T21:15:57.345Z,23.90
2018-04-14T21:18:24.870Z,23.90
2018-04-14T21:20:53.154Z,23.90
2018-04-14T21:23:21.293Z,23.90
2018-04-14T21:25:48.819Z,23.80
2018-04-14T21:28:16.312Z,23.80
2018-04-14T21:30:43.781Z,23.80
2018-04-14T21:33:12.045Z,23.80
2018-04-14T21:35:39.570Z,23.80
2018-04-14T21:38:07.077Z,23.80
2018-04-14T21:40:35.368Z,23.80
2018-04-14T21:43:02.856Z,23.80
2018-04-14T21:45:30.368Z,23.80
2018-04-14T21:47:58.642Z,23.80
2018-04-14T21:50:26.929Z,23.80
2018-04-14T21:52:55.207Z,23.80
2018-04-14T21:55:23.510Z,23.80
2018-04-14T21:57:51.006Z,23.70
2018-04-14T22:00:18.519Z,23.80
2018-04-14T22:02:46.075Z,23.80
2018-04-14T22:05:13.658Z,23.80
2018-04-14T22:07:41.212Z,23.70
2018-04-14T22:10:08.730Z,23.80
2018-04-14T22:12:37.089Z,23.80
2018-04-14T22:15:04.551Z,23.80
2018-04-14T22:17:32.085Z,23.80
2018-04-14T22:19:59.561Z,23.70
2018-04-14T22:22:27.063Z,23.80
2018-04-14T22:24:54.733Z,23.70
2018-04-14T22:27:22.273Z,23.70
2018-04-14T22:29:50.517Z,23.70
2018-04-14T22:32:18.213Z,23.70
2018-04-14T22:34:45.727Z,23.70
2018-04-14T22:37:13.500Z,23.70
2018-04-14T22:39:41.111Z,23.70
2018-04-14T22:42:08.622Z,23.70
2018-04-14T22:44:36.145Z,23.70
2018-04-14T22:47:03.663Z,23.70
2018-04-14T22:49:32.031Z,23.70
2018-04-14T22:51:59.513Z,23.70
2018-04-14T22:54:27.029Z,23.70
2018-04-14T22:56:54.595Z,23.70
2018-04-14T22:59:22.109Z,23.70
2018-04-14T23:01:49.653Z,23.70
2018-04-14T23:04:17.277Z,23.70
2018-04-14T23:06:44.781Z,23.70
2018-04-14T23:09:15.411Z,23.70
2018-04-14T23:11:42.939Z,23.70
2018-04-14T23:14:10.491Z,23.70
2018-04-14T23:16:38.013Z,23.70
2018-04-14T23:19:06.514Z,23.70
2018-04-14T23:21:33.999Z,23.70
2018-04-14T23:24:02.264Z,23.70
2018-04-14T23:26:30.522Z,23.70
2018-04-14T23:28:58.032Z,23.70
2018-04-14T23:31:25.583Z,23.70
2018-04-14T23:33:53.152Z,23.70
2018-04-14T23:36:20.949Z,23.70
2018-04-14T23:38:48.535Z,23.70
2018-04-14T23:41:16.091Z,23.70
2018-04-14T23:43:44.410Z,23.70
2018-04-14T23:46:12.003Z,23.70
2018-04-14T23:48:40.340Z,23.70
2018-04-14T23:51:07.892Z,23.70
2018-04-14T23:53:35.388Z,23.70
2018-04-14T23:56:02.935Z,23.70
2018-04-14T23:58:30.415Z,23.70
